sensor_id;sensor_type;location;lat;lon;timestamp;pressure;altitude;pressure_sealevel;temperature;humidity
6453;BME280;3259;51.080;13.712;2023-12-07T00:01:52;100489.91;;;25.25;46.77
6453;BME280;3259;51.080;13.712;2023-12-07T00:04:41;100486.81;;;25.22;46.68
6453;BME280;3259;51.080;13.712;2023-12-07T00:07:30;100490.59;;;25.13;47.18
6453;BME280;3259;51.080;13.712;2023-12-07T00:10:19;100488.38;;;25.16;46.94
6453;BME280;3259;51.080;13.712;2023-12-07T00:13:08;100493.28;;;25.13;47.07
6453;BME280;3259;51.080;13.712;2023-12-07T00:15:58;100491.38;;;25.07;47.02
6453;BME280;3259;51.080;13.712;2023-12-07T00:18:47;100498.16;;;25.09;47.02
6453;BME280;3259;51.080;13.712;2023-12-07T00:21:35;100503.28;;;25.04;46.68
6453;BME280;3259;51.080;13.712;2023-12-07T00:24:24;100500.78;;;25.03;46.80
6453;BME280;3259;51.080;13.712;2023-12-07T00:27:13;100502.44;;;25.04;46.97
6453;BME280;3259;51.080;13.712;2023-12-07T00:30:02;100497.50;;;25.01;46.96
6453;BME280;3259;51.080;13.712;2023-12-07T00:32:52;100501.94;;;24.94;47.08
6453;BME280;3259;51.080;13.712;2023-12-07T00:35:41;100499.09;;;24.95;46.98
6453;BME280;3259;51.080;13.712;2023-12-07T00:38:30;100495.34;;;24.90;46.98
6453;BME280;3259;51.080;13.712;2023-12-07T00:41:19;100498.25;;;24.95;47.09
6453;BME280;3259;51.080;13.712;2023-12-07T00:44:08;100491.63;;;24.84;47.14
6453;BME280;3259;51.080;13.712;2023-12-07T00:46:57;100485.78;;;24.74;47.03
6453;BME280;3259;51.080;13.712;2023-12-07T00:49:47;100485.50;;;24.63;47.37
6453;BME280;3259;51.080;13.712;2023-12-07T00:52:36;100493.09;;;24.66;47.23
6453;BME280;3259;51.080;13.712;2023-12-07T00:55:24;100486.75;;;24.67;47.38
6453;BME280;3259;51.080;13.712;2023-12-07T00:58:13;100494.31;;;24.63;47.71
6453;BME280;3259;51.080;13.712;2023-12-07T01:01:02;100495.97;;;24.64;47.58
6453;BME280;3259;51.080;13.712;2023-12-07T01:03:51;100503.78;;;24.66;47.17
6453;BME280;3259;51.080;13.712;2023-12-07T01:06:42;100509.94;;;24.66;47.55
6453;BME280;3259;51.080;13.712;2023-12-07T01:09:30;100513.94;;;24.56;47.33
6453;BME280;3259;51.080;13.712;2023-12-07T01:12:19;100522.22;;;24.61;47.37
6453;BME280;3259;51.080;13.712;2023-12-07T01:15:08;100520.75;;;24.58;47.66
6453;BME280;3259;51.080;13.712;2023-12-07T01:17:57;100519.28;;;24.56;47.54
6453;BME280;3259;51.080;13.712;2023-12-07T01:20:46;100526.25;;;24.57;47.33
6453;BME280;3259;51.080;13.712;2023-12-07T01:23:36;100521.66;;;24.51;47.50
6453;BME280;3259;51.080;13.712;2023-12-07T01:26:25;100530.38;;;24.59;47.36
6453;BME280;3259;51.080;13.712;2023-12-07T01:29:14;100528.28;;;24.55;47.24
6453;BME280;3259;51.080;13.712;2023-12-07T01:32:02;100531.97;;;24.54;47.48
6453;BME280;3259;51.080;13.712;2023-12-07T01:34:52;100526.53;;;24.47;47.81
6453;BME280;3259;51.080;13.712;2023-12-07T01:37:41;100533.63;;;24.55;47.21
6453;BME280;3259;51.080;13.712;2023-12-07T01:40:31;100538.69;;;24.50;47.51
6453;BME280;3259;51.080;13.712;2023-12-07T01:43:22;100540.06;;;24.46;47.70
6453;BME280;3259;51.080;13.712;2023-12-07T01:46:11;100541.06;;;24.45;47.54
6453;BME280;3259;51.080;13.712;2023-12-07T01:49:00;100540.50;;;24.49;47.75
6453;BME280;3259;51.080;13.712;2023-12-07T01:51:49;100548.72;;;24.48;47.44
6453;BME280;3259;51.080;13.712;2023-12-07T01:54:38;100549.06;;;24.45;47.54
6453;BME280;3259;51.080;13.712;2023-12-07T01:57:29;100548.44;;;24.43;47.51
6453;BME280;3259;51.080;13.712;2023-12-07T02:00:18;100551.13;;;24.43;47.39
6453;BME280;3259;51.080;13.712;2023-12-07T02:03:06;100555.19;;;24.39;47.61
6453;BME280;3259;51.080;13.712;2023-12-07T02:05:55;100546.53;;;24.37;47.75
6453;BME280;3259;51.080;13.712;2023-12-07T02:08:46;100556.06;;;24.46;47.25
6453;BME280;3259;51.080;13.712;2023-12-07T02:11:34;100558.88;;;24.38;47.42
6453;BME280;3259;51.080;13.712;2023-12-07T02:14:25;100560.50;;;24.39;47.63
6453;BME280;3259;51.080;13.712;2023-12-07T02:17:18;100565.84;;;24.39;47.52
6453;BME280;3259;51.080;13.712;2023-12-07T02:20:12;100559.50;;;24.40;47.72
6453;BME280;3259;51.080;13.712;2023-12-07T02:23:08;100560.50;;;24.39;47.39
6453;BME280;3259;51.080;13.712;2023-12-07T02:25:57;100563.19;;;24.39;47.60
6453;BME280;3259;51.080;13.712;2023-12-07T02:28:51;100569.88;;;24.35;47.69
6453;BME280;3259;51.080;13.712;2023-12-07T02:31:40;100568.91;;;24.36;47.62
6453;BME280;3259;51.080;13.712;2023-12-07T02:34:29;100567.50;;;24.40;47.82
6453;BME280;3259;51.080;13.712;2023-12-07T02:37:19;100557.22;;;24.37;47.30
6453;BME280;3259;51.080;13.712;2023-12-07T02:40:10;100567.50;;;24.40;47.71
6453;BME280;3259;51.080;13.712;2023-12-07T02:43:03;100578.53;;;24.37;47.53
6453;BME280;3259;51.080;13.712;2023-12-07T02:45:54;100578.53;;;24.37;47.50
6453;BME280;3259;51.080;13.712;2023-12-07T02:48:42;100577.78;;;24.43;47.31
6453;BME280;3259;51.080;13.712;2023-12-07T02:51:31;100583.50;;;24.40;47.32
6453;BME280;3259;51.080;13.712;2023-12-07T02:54:20;100582.66;;;24.39;47.38
6453;BME280;3259;51.080;13.712;2023-12-07T02:57:08;100592.13;;;24.42;47.36
6453;BME280;3259;51.080;13.712;2023-12-07T02:59:57;100587.19;;;24.39;47.71
6453;BME280;3259;51.080;13.712;2023-12-07T03:02:47;100590.78;;;24.31;47.35
6453;BME280;3259;51.080;13.712;2023-12-07T03:05:37;100594.25;;;24.32;47.75
6453;BME280;3259;51.080;13.712;2023-12-07T03:08:26;100589.00;;;24.38;47.38
6453;BME280;3259;51.080;13.712;2023-12-07T03:11:15;100597.84;;;24.39;47.41
6453;BME280;3259;51.080;13.712;2023-12-07T03:14:04;100592.91;;;24.36;47.55
6453;BME280;3259;51.080;13.712;2023-12-07T03:16:53;100605.31;;;24.29;47.71
6453;BME280;3259;51.080;13.712;2023-12-07T03:19:43;100605.84;;;24.24;47.85
6453;BME280;3259;51.080;13.712;2023-12-07T03:22:32;100599.34;;;24.27;47.88
6453;BME280;3259;51.080;13.712;2023-12-07T03:25:21;100611.91;;;24.33;47.57
6453;BME280;3259;51.080;13.712;2023-12-07T03:28:10;100607.59;;;24.32;47.52
6453;BME280;3259;51.080;13.712;2023-12-07T03:30:58;100606.56;;;24.33;47.81
6453;BME280;3259;51.080;13.712;2023-12-07T03:33:47;100609.63;;;24.30;47.46
6453;BME280;3259;51.080;13.712;2023-12-07T03:36:40;100612.91;;;24.32;47.34
6453;BME280;3259;51.080;13.712;2023-12-07T03:39:28;100609.16;;;24.26;47.81
6453;BME280;3259;51.080;13.712;2023-12-07T03:42:19;100597.69;;;24.26;47.64
6453;BME280;3259;51.080;13.712;2023-12-07T03:45:28;100608.34;;;24.26;47.86
6453;BME280;3259;51.080;13.712;2023-12-07T03:48:17;100608.69;;;24.23;48.04
6453;BME280;3259;51.080;13.712;2023-12-07T03:51:06;100610.00;;;24.27;47.92
6453;BME280;3259;51.080;13.712;2023-12-07T03:53:56;100611.19;;;24.24;48.00
6453;BME280;3259;51.080;13.712;2023-12-07T03:56:45;100617.72;;;24.22;47.60
6453;BME280;3259;51.080;13.712;2023-12-07T03:59:35;100615.78;;;24.30;47.46
6453;BME280;3259;51.080;13.712;2023-12-07T04:02:24;100614.94;;;24.30;47.78
6453;BME280;3259;51.080;13.712;2023-12-07T04:05:13;100616.59;;;24.31;47.50
6453;BME280;3259;51.080;13.712;2023-12-07T04:08:02;100609.63;;;24.30;47.58
6453;BME280;3259;51.080;13.712;2023-12-07T04:10:53;100613.31;;;24.29;47.55
6453;BME280;3259;51.080;13.712;2023-12-07T04:13:42;100617.38;;;24.25;47.68
6453;BME280;3259;51.080;13.712;2023-12-07T04:16:31;100621.84;;;24.24;47.46
6453;BME280;3259;51.080;13.712;2023-12-07T04:19:20;100630.78;;;24.17;48.01
6453;BME280;3259;51.080;13.712;2023-12-07T04:22:08;100622.41;;;24.20;47.59
6453;BME280;3259;51.080;13.712;2023-12-07T04:24:57;100626.72;;;24.21;47.34
6453;BME280;3259;51.080;13.712;2023-12-07T04:27:47;100628.38;;;24.22;47.52
6453;BME280;3259;51.080;13.712;2023-12-07T04:30:36;100629.69;;;24.26;47.73
6453;BME280;3259;51.080;13.712;2023-12-07T04:33:24;100634.53;;;24.22;47.66
6453;BME280;3259;51.080;13.712;2023-12-07T04:36:13;100633.34;;;24.25;47.64
6453;BME280;3259;51.080;13.712;2023-12-07T04:39:02;100635.34;;;24.23;47.46
6453;BME280;3259;51.080;13.712;2023-12-07T04:41:51;100641.69;;;24.22;47.81
6453;BME280;3259;51.080;13.712;2023-12-07T04:44:41;100650.34;;;24.24;47.48
6453;BME280;3259;51.080;13.712;2023-12-07T04:47:31;100646.41;;;24.20;47.84
6453;BME280;3259;51.080;13.712;2023-12-07T04:50:21;100653.00;;;24.24;47.42
6453;BME280;3259;51.080;13.712;2023-12-07T04:53:09;100655.88;;;24.22;47.75
6453;BME280;3259;51.080;13.712;2023-12-07T04:55:58;100656.69;;;24.23;47.80
6453;BME280;3259;51.080;13.712;2023-12-07T04:58:47;100660.38;;;24.22;47.84
6453;BME280;3259;51.080;13.712;2023-12-07T05:01:37;100661.84;;;24.24;47.84
6453;BME280;3259;51.080;13.712;2023-12-07T05:04:26;100661.13;;;24.16;47.98
6453;BME280;3259;51.080;13.712;2023-12-07T05:07:14;100664.81;;;24.15;48.02
6453;BME280;3259;51.080;13.712;2023-12-07T05:10:04;100670.13;;;24.15;47.51
6453;BME280;3259;51.080;13.712;2023-12-07T05:12:53;100668.00;;;24.25;47.56
6453;BME280;3259;51.080;13.712;2023-12-07T05:15:43;100668.34;;;24.22;47.71
6453;BME280;3259;51.080;13.712;2023-12-07T05:18:35;100671.03;;;24.22;47.33
6453;BME280;3259;51.080;13.712;2023-12-07T05:21:24;100660.81;;;24.25;47.31
6453;BME280;3259;51.080;13.712;2023-12-07T05:24:13;100666.34;;;24.24;47.28
6453;BME280;3259;51.080;13.712;2023-12-07T05:27:01;100658.72;;;24.21;47.63
6453;BME280;3259;51.080;13.712;2023-12-07T05:29:50;100668.81;;;24.11;48.02
6453;BME280;3259;51.080;13.712;2023-12-07T05:32:39;100672.97;;;24.13;48.14
6453;BME280;3259;51.080;13.712;2023-12-07T05:35:29;100664.97;;;24.28;46.91
6453;BME280;3259;51.080;13.712;2023-12-07T05:38:18;100679.56;;;24.17;47.09
6453;BME280;3259;51.080;13.712;2023-12-07T05:41:07;100679.03;;;24.22;46.19
6453;BME280;3259;51.080;13.712;2023-12-07T05:43:56;100687.94;;;24.29;45.61
6453;BME280;3259;51.080;13.712;2023-12-07T05:46:44;100683.16;;;24.24;45.43
6453;BME280;3259;51.080;13.712;2023-12-07T05:49:33;100688.16;;;24.13;46.02
6453;BME280;3259;51.080;13.712;2023-12-07T05:52:23;100681.25;;;24.18;46.36
6453;BME280;3259;51.080;13.712;2023-12-07T05:55:13;100689.44;;;24.17;46.65
6453;BME280;3259;51.080;13.712;2023-12-07T05:58:01;100686.13;;;24.15;47.13
6453;BME280;3259;51.080;13.712;2023-12-07T06:00:51;100685.19;;;24.08;47.10
6453;BME280;3259;51.080;13.712;2023-12-07T06:03:40;100686.47;;;24.12;47.58
6453;BME280;3259;51.080;13.712;2023-12-07T06:06:29;100684.09;;;24.17;47.11
6453;BME280;3259;51.080;13.712;2023-12-07T06:09:20;100677.13;;;24.16;47.15
6453;BME280;3259;51.080;13.712;2023-12-07T06:12:09;100683.72;;;24.20;47.32
6453;BME280;3259;51.080;13.712;2023-12-07T06:14:58;100691.44;;;24.15;47.33
6453;BME280;3259;51.080;13.712;2023-12-07T06:17:47;100698.06;;;24.19;47.44
6453;BME280;3259;51.080;13.712;2023-12-07T06:20:35;100700.09;;;24.17;47.07
6453;BME280;3259;51.080;13.712;2023-12-07T06:23:24;100707.44;;;24.15;47.45
6453;BME280;3259;51.080;13.712;2023-12-07T06:26:14;100703.38;;;24.19;47.14
6453;BME280;3259;51.080;13.712;2023-12-07T06:29:03;100701.09;;;24.16;47.42
6453;BME280;3259;51.080;13.712;2023-12-07T06:31:54;100710.75;;;24.17;47.67
6453;BME280;3259;51.080;13.712;2023-12-07T06:34:43;100715.06;;;24.18;47.65
6453;BME280;3259;51.080;13.712;2023-12-07T06:37:32;100709.47;;;24.13;47.22
6453;BME280;3259;51.080;13.712;2023-12-07T06:40:21;100713.13;;;24.12;47.68
6453;BME280;3259;51.080;13.712;2023-12-07T06:43:11;100711.47;;;24.11;47.69
6453;BME280;3259;51.080;13.712;2023-12-07T06:46:01;100717.16;;;24.08;47.84
6453;BME280;3259;51.080;13.712;2023-12-07T06:48:50;100719.56;;;24.03;48.08
6453;BME280;3259;51.080;13.712;2023-12-07T06:51:39;100727.81;;;24.08;47.89
6453;BME280;3259;51.080;13.712;2023-12-07T06:54:27;100724.53;;;24.06;47.84
6453;BME280;3259;51.080;13.712;2023-12-07T06:57:16;100726.00;;;24.08;47.81
6453;BME280;3259;51.080;13.712;2023-12-07T07:00:07;100724.44;;;24.14;47.73
6453;BME280;3259;51.080;13.712;2023-12-07T07:02:58;100729.78;;;24.14;47.76
6453;BME280;3259;51.080;13.712;2023-12-07T07:05:46;100723.97;;;24.10;47.50
6453;BME280;3259;51.080;13.712;2023-12-07T07:08:35;100731.97;;;24.10;47.97
6453;BME280;3259;51.080;13.712;2023-12-07T07:11:24;100726.19;;;24.07;47.78
6453;BME280;3259;51.080;13.712;2023-12-07T07:14:13;100733.16;;;24.08;48.01
6453;BME280;3259;51.080;13.712;2023-12-07T07:17:04;100730.13;;;24.11;47.88
6453;BME280;3259;51.080;13.712;2023-12-07T07:19:53;100733.81;;;24.10;47.49
6453;BME280;3259;51.080;13.712;2023-12-07T07:22:42;100732.78;;;24.11;47.89
6453;BME280;3259;51.080;13.712;2023-12-07T07:25:32;100732.78;;;24.11;47.61
6453;BME280;3259;51.080;13.712;2023-12-07T07:28:21;100738.41;;;24.16;47.82
6453;BME280;3259;51.080;13.712;2023-12-07T07:31:10;100738.03;;;24.04;48.06
6453;BME280;3259;51.080;13.712;2023-12-07T07:34:00;100741.22;;;24.00;47.91
6453;BME280;3259;51.080;13.712;2023-12-07T07:36:49;100738.38;;;24.01;47.94
6453;BME280;3259;51.080;13.712;2023-12-07T07:39:38;100729.84;;;24.06;47.82
6453;BME280;3259;51.080;13.712;2023-12-07T07:42:26;100737.84;;;24.06;47.74
6453;BME280;3259;51.080;13.712;2023-12-07T07:45:16;100738.88;;;24.05;47.63
6453;BME280;3259;51.080;13.712;2023-12-07T07:48:05;100742.16;;;24.07;47.92
6453;BME280;3259;51.080;13.712;2023-12-07T07:50:55;100733.69;;;24.03;47.86
6453;BME280;3259;51.080;13.712;2023-12-07T07:53:44;100729.84;;;24.06;47.70
6453;BME280;3259;51.080;13.712;2023-12-07T07:56:32;100742.16;;;24.07;47.69
6453;BME280;3259;51.080;13.712;2023-12-07T07:59:22;100742.53;;;24.04;47.84
6453;BME280;3259;51.080;13.712;2023-12-07T08:02:11;100741.06;;;24.01;47.71
6453;BME280;3259;51.080;13.712;2023-12-07T08:04:59;100738.03;;;24.04;47.82
6453;BME280;3259;51.080;13.712;2023-12-07T08:07:50;100739.94;;;23.96;48.00
6453;BME280;3259;51.080;13.712;2023-12-07T08:10:39;100747.22;;;24.02;47.62
6453;BME280;3259;51.080;13.712;2023-12-07T08:13:42;100748.34;;;24.07;47.70
6453;BME280;3259;51.080;13.712;2023-12-07T08:16:30;100740.03;;;24.02;48.01
6453;BME280;3259;51.080;13.712;2023-12-07T08:19:19;100749.22;;;24.00;48.23
6453;BME280;3259;51.080;13.712;2023-12-07T08:22:08;100744.19;;;24.05;47.90
6453;BME280;3259;51.080;13.712;2023-12-07T08:24:58;100746.50;;;24.08;47.52
6453;BME280;3259;51.080;13.712;2023-12-07T08:27:57;100753.56;;;24.01;47.79
6453;BME280;3259;51.080;13.712;2023-12-07T08:30:46;100754.28;;;23.95;47.88
6453;BME280;3259;51.080;13.712;2023-12-07T08:33:34;100750.22;;;23.99;47.71
6453;BME280;3259;51.080;13.712;2023-12-07T08:36:25;100753.69;;;23.85;47.89
6453;BME280;3259;51.080;13.712;2023-12-07T08:39:14;100757.69;;;23.89;48.01
6453;BME280;3259;51.080;13.712;2023-12-07T08:42:04;100754.66;;;23.92;48.24
6453;BME280;3259;51.080;13.712;2023-12-07T08:44:53;100766.59;;;23.96;47.68
6453;BME280;3259;51.080;13.712;2023-12-07T08:47:42;100758.59;;;23.96;47.82
6453;BME280;3259;51.080;13.712;2023-12-07T08:50:32;100765.09;;;23.93;48.04
6453;BME280;3259;51.080;13.712;2023-12-07T08:53:21;100766.41;;;24.12;47.62
6453;BME280;3259;51.080;13.712;2023-12-07T08:56:10;100767.88;;;24.00;47.66
6453;BME280;3259;51.080;13.712;2023-12-07T08:59:01;100781.84;;;23.87;48.76
6453;BME280;3259;51.080;13.712;2023-12-07T09:01:50;100786.34;;;24.01;48.35
6453;BME280;3259;51.080;13.712;2023-12-07T09:04:39;100781.56;;;23.97;48.64
6453;BME280;3259;51.080;13.712;2023-12-07T09:07:28;100787.00;;;23.89;48.65
6453;BME280;3259;51.080;13.712;2023-12-07T09:10:16;100791.31;;;23.90;48.29
6453;BME280;3259;51.080;13.712;2023-12-07T09:13:05;100783.31;;;23.90;48.37
6453;BME280;3259;51.080;13.712;2023-12-07T09:15:55;100793.13;;;23.89;48.26
6453;BME280;3259;51.080;13.712;2023-12-07T09:18:44;100786.63;;;23.92;48.53
6453;BME280;3259;51.080;13.712;2023-12-07T09:21:33;100783.59;;;23.95;48.11
6453;BME280;3259;51.080;13.712;2023-12-07T09:24:22;100794.31;;;23.87;48.38
6453;BME280;3259;51.080;13.712;2023-12-07T09:27:11;100783.41;;;23.74;49.08
6453;BME280;3259;51.080;13.712;2023-12-07T09:30:01;100792.66;;;23.86;48.76
6453;BME280;3259;51.080;13.712;2023-12-07T09:32:52;100783.31;;;23.90;48.32
6453;BME280;3259;51.080;13.712;2023-12-07T09:35:41;100799.19;;;23.83;48.58
6453;BME280;3259;51.080;13.712;2023-12-07T09:38:30;100795.81;;;23.81;48.44
6453;BME280;3259;51.080;13.712;2023-12-07T09:41:19;100797.03;;;23.79;48.47
6453;BME280;3259;51.080;13.712;2023-12-07T09:44:08;100800.34;;;23.81;48.45
6453;BME280;3259;51.080;13.712;2023-12-07T09:46:57;100800.00;;;23.84;48.23
6453;BME280;3259;51.080;13.712;2023-12-07T09:49:49;100794.06;;;23.74;48.52
6453;BME280;3259;51.080;13.712;2023-12-07T09:52:39;100791.06;;;23.77;48.53
6453;BME280;3259;51.080;13.712;2023-12-07T09:55:39;100800.34;;;23.81;48.73
6453;BME280;3259;51.080;13.712;2023-12-07T09:58:28;100790.38;;;23.75;48.55
6453;BME280;3259;51.080;13.712;2023-12-07T10:01:29;100780.69;;;23.82;48.48
6453;BME280;3259;51.080;13.712;2023-12-07T10:04:19;100788.84;;;23.80;48.36
6453;BME280;3259;51.080;13.712;2023-12-07T10:07:12;100788.34;;;23.85;48.08
6453;BME280;3259;51.080;13.712;2023-12-07T10:10:01;100796.31;;;23.85;48.03
6453;BME280;3259;51.080;13.712;2023-12-07T10:12:52;100787.81;;;23.89;48.23
6453;BME280;3259;51.080;13.712;2023-12-07T10:15:41;100798.63;;;23.88;48.19
6453;BME280;3259;51.080;13.712;2023-12-07T10:18:30;100789.94;;;23.94;48.20
6453;BME280;3259;51.080;13.712;2023-12-07T10:21:31;100792.66;;;23.86;48.32
6453;BME280;3259;51.080;13.712;2023-12-07T10:24:22;100794.13;;;23.88;47.91
6453;BME280;3259;51.080;13.712;2023-12-07T10:27:12;100780.34;;;23.85;47.88
6453;BME280;3259;51.080;13.712;2023-12-07T10:30:01;100784.03;;;23.84;48.19
6453;BME280;3259;51.080;13.712;2023-12-07T10:32:50;100784.66;;;23.86;48.18
6453;BME280;3259;51.080;13.712;2023-12-07T10:35:39;100775.31;;;23.90;48.16
6453;BME280;3259;51.080;13.712;2023-12-07T10:38:29;100787.38;;;23.78;48.25
6453;BME280;3259;51.080;13.712;2023-12-07T10:41:21;100788.03;;;23.80;48.32
6453;BME280;3259;51.080;13.712;2023-12-07T10:44:13;100782.00;;;23.86;48.15
6453;BME280;3259;51.080;13.712;2023-12-07T10:47:02;100788.19;;;23.78;48.14
6453;BME280;3259;51.080;13.712;2023-12-07T10:49:54;100773.13;;;23.71;48.15
6453;BME280;3259;51.080;13.712;2023-12-07T10:52:51;100780.69;;;23.82;48.17
6453;BME280;3259;51.080;13.712;2023-12-07T10:55:46;100774.41;;;23.75;48.33
6453;BME280;3259;51.080;13.712;2023-12-07T10:58:38;100780.69;;;23.82;48.15
6453;BME280;3259;51.080;13.712;2023-12-07T11:01:27;100793.50;;;23.86;48.19
6453;BME280;3259;51.080;13.712;2023-12-07T11:04:18;100785.38;;;23.80;48.18
6453;BME280;3259;51.080;13.712;2023-12-07T11:07:14;100784.97;;;23.91;48.09
6453;BME280;3259;51.080;13.712;2023-12-07T11:10:12;100776.34;;;23.89;48.11
6453;BME280;3259;51.080;13.712;2023-12-07T11:13:11;100790.31;;;23.83;48.14
6453;BME280;3259;51.080;13.712;2023-12-07T11:16:04;100793.34;;;23.80;48.08
6453;BME280;3259;51.080;13.712;2023-12-07T11:18:53;100784.72;;;23.78;47.95
6453;BME280;3259;51.080;13.712;2023-12-07T11:21:42;100782.88;;;23.78;48.35
6453;BME280;3259;51.080;13.712;2023-12-07T11:24:31;100782.13;;;23.70;48.26
6453;BME280;3259;51.080;13.712;2023-12-07T11:27:21;100777.78;;;23.69;48.21
6453;BME280;3259;51.080;13.712;2023-12-07T11:30:11;100772.34;;;23.62;48.55
6453;BME280;3259;51.080;13.712;2023-12-07T11:33:03;100783.75;;;23.71;48.02
6453;BME280;3259;51.080;13.712;2023-12-07T11:36:06;100775.72;;;23.79;48.32
6453;BME280;3259;51.080;13.712;2023-12-07T11:39:17;100772.41;;;23.77;48.26
6453;BME280;3259;51.080;13.712;2023-12-07T11:42:16;100772.09;;;23.72;48.17
6453;BME280;3259;51.080;13.712;2023-12-07T11:45:06;100774.41;;;23.75;48.04
6453;BME280;3259;51.080;13.712;2023-12-07T11:48:07;100772.41;;;23.77;47.88
6453;BME280;3259;51.080;13.712;2023-12-07T11:50:59;100772.47;;;23.69;48.34
6453;BME280;3259;51.080;13.712;2023-12-07T11:53:48;100773.75;;;23.73;47.91
6453;BME280;3259;51.080;13.712;2023-12-07T11:56:38;100765.75;;;23.73;47.91
6453;BME280;3259;51.080;13.712;2023-12-07T11:59:26;100776.06;;;23.76;48.32
6453;BME280;3259;51.080;13.712;2023-12-07T12:02:20;100778.06;;;23.74;48.01
6453;BME280;3259;51.080;13.712;2023-12-07T12:05:11;100772.03;;;23.80;47.79
6453;BME280;3259;51.080;13.712;2023-12-07T12:08:00;100781.84;;;23.79;48.04
6453;BME280;3259;51.080;13.712;2023-12-07T12:10:50;100779.72;;;23.75;48.30
6453;BME280;3259;51.080;13.712;2023-12-07T12:13:40;100774.41;;;23.75;48.16
6453;BME280;3259;51.080;13.712;2023-12-07T12:16:29;100779.16;;;23.65;48.35
6453;BME280;3259;51.080;13.712;2023-12-07T12:19:18;100775.13;;;23.69;47.97
6453;BME280;3259;51.080;13.712;2023-12-07T12:22:20;100781.84;;;23.65;48.43
6453;BME280;3259;51.080;13.712;2023-12-07T12:25:08;100770.44;;;23.71;48.07
6453;BME280;3259;51.080;13.712;2023-12-07T12:28:02;100774.66;;;23.65;48.35
6453;BME280;3259;51.080;13.712;2023-12-07T12:30:51;100764.53;;;23.61;48.36
6453;BME280;3259;51.080;13.712;2023-12-07T12:33:40;100765.19;;;23.63;48.36
6453;BME280;3259;51.080;13.712;2023-12-07T12:36:29;100767.78;;;23.71;48.10
6453;BME280;3259;51.080;13.712;2023-12-07T12:39:19;100768.16;;;23.68;47.90
6453;BME280;3259;51.080;13.712;2023-12-07T12:42:18;100765.19;;;23.63;48.19
6453;BME280;3259;51.080;13.712;2023-12-07T12:45:08;100761.69;;;23.62;48.41
6453;BME280;3259;51.080;13.712;2023-12-07T12:47:57;100761.16;;;23.67;48.34
6453;BME280;3259;51.080;13.712;2023-12-07T12:50:49;100756.31;;;23.70;47.84
6453;BME280;3259;51.080;13.712;2023-12-07T12:53:41;100754.19;;;23.66;48.12
6453;BME280;3259;51.080;13.712;2023-12-07T12:56:34;100756.50;;;23.69;47.96
6453;BME280;3259;51.080;13.712;2023-12-07T12:59:23;100753.47;;;23.72;47.86
6453;BME280;3259;51.080;13.712;2023-12-07T13:02:12;100750.78;;;23.72;48.07
6453;BME280;3259;51.080;13.712;2023-12-07T13:05:01;100755.84;;;23.67;48.42
6453;BME280;3259;51.080;13.712;2023-12-07T13:07:51;100751.59;;;23.58;48.47
6453;BME280;3259;51.080;13.712;2023-12-07T13:11:00;100748.50;;;23.69;48.01
6453;BME280;3259;51.080;13.712;2023-12-07T13:13:50;100754.75;;;23.76;47.85
6453;BME280;3259;51.080;13.712;2023-12-07T13:16:39;100754.41;;;23.79;47.78
6453;BME280;3259;51.080;13.712;2023-12-07T13:19:27;100759.97;;;23.69;48.09
6453;BME280;3259;51.080;13.712;2023-12-07T13:22:16;100750.16;;;23.70;48.35
6453;BME280;3259;51.080;13.712;2023-12-07T13:25:06;100740.78;;;23.74;48.01
6453;BME280;3259;51.080;13.712;2023-12-07T13:27:55;100743.56;;;23.80;47.53
6453;BME280;3259;51.080;13.712;2023-12-07T13:30:46;100747.44;;;23.78;48.00
6453;BME280;3259;51.080;13.712;2023-12-07T13:33:35;100747.31;;;23.71;47.79
6453;BME280;3259;51.080;13.712;2023-12-07T13:36:39;100744.94;;;23.76;47.70
6453;BME280;3259;51.080;13.712;2023-12-07T13:39:27;100750.25;;;23.76;48.06
6453;BME280;3259;51.080;13.712;2023-12-07T13:42:18;100754.41;;;23.79;47.72
6453;BME280;3259;51.080;13.712;2023-12-07T13:45:08;100759.09;;;23.77;47.77
6453;BME280;3259;51.080;13.712;2023-12-07T13:47:58;100754.75;;;23.76;47.90
6453;BME280;3259;51.080;13.712;2023-12-07T13:50:47;100756.88;;;23.80;47.90
6453;BME280;3259;51.080;13.712;2023-12-07T13:53:37;100764.09;;;23.72;47.61
6453;BME280;3259;51.080;13.712;2023-12-07T13:56:25;100768.16;;;23.68;48.00
6453;BME280;3259;51.080;13.712;2023-12-07T13:59:14;100778.06;;;23.74;47.62
6453;BME280;3259;51.080;13.712;2023-12-07T14:02:03;100763.84;;;23.81;47.95
6453;BME280;3259;51.080;13.712;2023-12-07T14:04:53;100775.41;;;23.74;47.73
6453;BME280;3259;51.080;13.712;2023-12-07T14:07:42;100776.78;;;23.70;48.12
6453;BME280;3259;51.080;13.712;2023-12-07T14:10:31;100770.16;;;23.66;47.64
6453;BME280;3259;51.080;13.712;2023-12-07T14:13:19;100768.25;;;23.52;46.67
6453;BME280;3259;51.080;13.712;2023-12-07T14:16:08;100773.41;;;23.53;39.39
6453;BME280;3259;51.080;13.712;2023-12-07T14:19:09;100763.78;;;23.52;36.05
6453;BME280;3259;51.080;13.712;2023-12-07T14:22:02;100772.88;;;23.58;36.67
6453;BME280;3259;51.080;13.712;2023-12-07T14:24:51;100765.91;;;23.57;37.95
6453;BME280;3259;51.080;13.712;2023-12-07T14:27:40;100769.84;;;23.61;38.83
6453;BME280;3259;51.080;13.712;2023-12-07T14:30:28;100762.59;;;23.55;39.71
6453;BME280;3259;51.080;13.712;2023-12-07T14:33:18;100768.25;;;23.52;40.09
6453;BME280;3259;51.080;13.712;2023-12-07T14:36:10;100767.34;;;23.45;40.57
6453;BME280;3259;51.080;13.712;2023-12-07T14:39:01;100773.47;;;23.23;41.14
6453;BME280;3259;51.080;13.712;2023-12-07T14:41:52;100769.50;;;23.19;41.92
6453;BME280;3259;51.080;13.712;2023-12-07T14:44:43;100762.56;;;23.02;43.05
6453;BME280;3259;51.080;13.712;2023-12-07T14:47:31;100761.56;;;23.03;43.80
6453;BME280;3259;51.080;13.712;2023-12-07T14:50:20;100759.03;;;23.18;43.76
6453;BME280;3259;51.080;13.712;2023-12-07T14:53:09;100760.75;;;23.03;44.10
6453;BME280;3259;51.080;13.712;2023-12-07T14:56:00;100746.13;;;22.99;44.55
6453;BME280;3259;51.080;13.712;2023-12-07T14:58:49;100751.28;;;23.00;44.68
6453;BME280;3259;51.080;13.712;2023-12-07T15:01:37;100753.69;;;23.18;44.61